Samedi 11 janvier 2020


PONTCHATEAU - 11/01/2020 (R2) 7 courses - Attelé Monté

Course Nb P. Discipline Distance Dotation Arrivée
C1 11:00 Prix Briand Industrial 16 Monté 2800 m. 15000 € 7 - 4 - 3 - 14 - 9
C2 11:30 Prix de la Communauté de Communes 16 Attelé 2650 m. 17000 € 1 - 5 - 3 - 10 - 4
C3 12:00 Prix de la Ville de Ponchâteau 16 Attelé 2650 m. 17000 € 3 - 5 - 7 - 2 - 8
C4 12:30 Prix du Café Pmu "Le Myros" 16 Attelé 2650 m. 15000 € 16 - 1 - 6 - 8 - 3
C5 13:00 Prix du Comité Régional de l'Ouest 18 Attelé 2800 m. 26000 € 14 - 15 - 6 - 3 - 5
C6 13:30 Prix Leclerc Distribution 16 Attelé 2800 m. 15000 € 8 - 13 - 3 - 1 - 5
C7 14:05 Prix Yves Et Jean Moyon 15 Attelé 2800 m. 15000 € 6 - 14 - 2 - 12 - 4

DEAUVILLE - 11/01/2020 (R3) 9 courses - Plat

Course Nb P. Discipline Distance Dotation Arrivée
C1 11:45 Prix Swain 7 Plat 2500 m. 21000 € 2 - 6 - 4 - 5 - 1
C2 12:15 Prix Priolo 6 Plat 1500 m. 35000 € 1 - 6 - 2 - 5 - 3
C3 12:45 Prix de la Gare de Da Lat 7 Plat 1500 m. 25000 € 6 - 3 - 5 - 4 - 1
C4 13:15 Prix de Beaufossé 11 Plat 2500 m. 18000 € 5 - 8 - 1 - 3 - 2
C5 13:45 Prix du Phare 11 Plat 1300 m. 20000 € 2 - 6 - 8 - 9 - 7
C6 14:17 Prix de Ryes 13 Plat 1500 m. 18000 € 3 - 1 - 4 - 5 - 13
C7 14:52 Prix de la Gare de Pointe-Noire 11 Plat 1500 m. 25000 € 5 - 1 - 8 - 7 - 4
C8 15:32 Prix d'Hennequeville 14 Plat 1300 m. 20000 € 4 - 2 - 8 - 12 - 10
C9 16:07 Prix du Home 12 Plat 1500 m. 19000 € 8 - 1 - 5 - 6 - 3

TOULOUSE - 11/01/2020 (R4) 8 courses - Attelé Monté

Course Nb P. Discipline Distance Dotation Arrivée
C1 16:42 Prix Antonin Dupuy 10 Attelé 2150 m. 20000 € 10 - 3 - 7 - 6 - 2
C2 17:17 Prix de Villeneuve sur Lot 18 Attelé 2950 m. 18000 € 14 - 3 - 16 - 4 - 18
C3 17:52 Prix de Monreysse 13 Attelé 2750 m. 30000 € 13 - 8 - 5 - 11 - 2
C4 18:27 Prix Tenor de Baune 13 Attelé 2750 m. 20000 € 3 - 5 - 12 - 9 - 1
C5 19:00 Prix Paléo 10 Attelé 2950 m. 16000 € 7 - 10 - 9 - 6 - 5
C6 19:30 Prix de la Cépière 10 Attelé 2150 m. 15000 € 1 - 4 - 2 - 6 - 7
C7 20:00 Prix de Bellefontaine 13 Monté 2325 m. 18000 € 10 - 8 - 1 - 6 - 7
C8 20:30 Prix de Castillonnès 16 Attelé 2150 m. 6000 € 4 - 3 - 12 - 2 - 13